createdAt,value
2022-11-30T00:01:30.990Z,102410.53
2022-11-30T00:03:58.545Z,102421.66
2022-11-30T00:06:26.147Z,102429.59
2022-11-30T00:08:55.507Z,102425.53
2022-11-30T00:11:25.566Z,102417.84
2022-11-30T00:13:53.263Z,102408.97
2022-11-30T00:16:21.196Z,102414.22
2022-11-30T00:18:48.929Z,102422.44
2022-11-30T00:21:16.479Z,102421.97
2022-11-30T00:23:45.721Z,102428.78
2022-11-30T00:26:16.715Z,102421.28
2022-11-30T00:28:45.998Z,102422.88
2022-11-30T00:31:16.557Z,102422.88
2022-11-30T00:33:44.874Z,102423.13
2022-11-30T00:36:15.934Z,102416.34
2022-11-30T00:38:44.486Z,102417.47
2022-11-30T00:41:14.780Z,102412.03
2022-11-30T00:43:42.486Z,102402.94
2022-11-30T00:46:10.751Z,102404.72
2022-11-30T00:48:39.519Z,102402.91
2022-11-30T00:51:08.358Z,102404.28
2022-11-30T00:53:36.125Z,102404.25
2022-11-30T00:56:04.264Z,102396.13
2022-11-30T00:58:31.728Z,102396.13
2022-11-30T01:01:01.530Z,102392.53
2022-11-30T01:03:29.345Z,102398.44
2022-11-30T01:06:02.832Z,102399.13
2022-11-30T01:08:30.473Z,102389.38
2022-11-30T01:11:05.976Z,102393.00
2022-11-30T01:13:33.539Z,102407.75
2022-11-30T01:16:01.228Z,102404.31
2022-11-30T01:18:28.784Z,102398.22
2022-11-30T01:20:56.329Z,102391.63
2022-11-30T01:23:23.812Z,102389.13
2022-11-30T01:25:55.651Z,102398.91
2022-11-30T01:28:23.240Z,102397.09
2022-11-30T01:31:08.249Z,102395.50
2022-11-30T01:33:36.328Z,102398.91
2022-11-30T01:36:12.302Z,102387.03
2022-11-30T01:38:51.111Z,102403.84
2022-11-30T01:41:31.678Z,102388.91
2022-11-30T01:44:05.079Z,102400.44
2022-11-30T01:47:10.256Z,102391.56
2022-11-30T01:49:51.758Z,102387.94
2022-11-30T01:52:19.260Z,102394.75
2022-11-30T01:54:54.428Z,102395.66
2022-11-30T01:57:24.928Z,102392.03
2022-11-30T01:59:54.915Z,102389.13
2022-11-30T02:02:32.183Z,102385.50
2022-11-30T02:05:00.601Z,102377.53
2022-11-30T02:07:28.384Z,102390.50
2022-11-30T02:09:56.006Z,102388.44
2022-11-30T02:13:01.706Z,102383.41
2022-11-30T02:16:07.514Z,102382.25
2022-11-30T02:18:41.130Z,102385.91
2022-11-30T02:21:33.269Z,102370.94
2022-11-30T02:24:23.310Z,102380.44
2022-11-30T02:27:02.859Z,102389.53
2022-11-30T02:29:35.120Z,102366.41
2022-11-30T02:32:08.115Z,102377.53
2022-11-30T02:34:38.234Z,102376.84
2022-11-30T02:37:08.060Z,102369.81
2022-11-30T02:39:35.729Z,102364.13
2022-11-30T02:42:03.420Z,102364.38
2022-11-30T02:44:31.495Z,102363.47
2022-11-30T02:47:05.019Z,102369.38
2022-11-30T02:49:38.475Z,102361.22
2022-11-30T02:52:08.190Z,102362.09
2022-11-30T02:54:35.827Z,102357.16
2022-11-30T02:57:03.385Z,102367.38
2022-11-30T02:59:31.020Z,102360.31
2022-11-30T03:01:58.597Z,102367.16
2022-11-30T03:04:26.205Z,102361.94
2022-11-30T03:06:53.686Z,102360.34
2022-11-30T03:09:21.247Z,102370.13
2022-11-30T03:11:48.748Z,102348.56
2022-11-30T03:14:16.203Z,102365.13
2022-11-30T03:16:44.342Z,102358.81
2022-11-30T03:19:12.692Z,102371.97
2022-11-30T03:21:40.226Z,102373.09
2022-11-30T03:24:08.106Z,102369.50
2022-11-30T03:26:35.747Z,102368.81
2022-11-30T03:29:03.506Z,102367.94
2022-11-30T03:31:31.094Z,102376.31
2022-11-30T03:33:58.700Z,102376.75
2022-11-30T03:36:26.310Z,102365.19
2022-11-30T03:38:53.739Z,102370.88
2022-11-30T03:41:21.319Z,102370.66
2022-11-30T03:43:49.891Z,102364.06
2022-11-30T03:46:17.918Z,102376.75
2022-11-30T03:48:45.618Z,102369.53
2022-11-30T03:51:14.403Z,102370.66
2022-11-30T03:53:42.395Z,102372.25
2022-11-30T03:56:11.791Z,102370.44
2022-11-30T03:58:39.344Z,102374.75
2022-11-30T04:01:13.412Z,102369.97
2022-11-30T04:03:41.695Z,102363.59
2022-11-30T04:06:10.672Z,102375.41
2022-11-30T04:08:39.052Z,102380.66
2022-11-30T04:11:07.685Z,102377.69
2022-11-30T04:13:37.271Z,102378.13
2022-11-30T04:16:06.604Z,102373.13
2022-11-30T04:18:36.574Z,102374.97
2022-11-30T04:21:05.172Z,102369.75
2022-11-30T04:23:35.550Z,102372.47
2022-11-30T04:26:08.588Z,102368.16
2022-11-30T04:28:36.440Z,102368.38
2022-11-30T04:31:04.717Z,102370.66
2022-11-30T04:33:32.439Z,102365.44
2022-11-30T04:36:02.811Z,102367.25
2022-11-30T04:38:31.374Z,102371.09
2022-11-30T04:40:58.977Z,102375.41
2022-11-30T04:43:27.635Z,102375.66
2022-11-30T04:45:55.075Z,102373.38
2022-11-30T04:48:22.586Z,102388.13
2022-11-30T04:50:50.093Z,102389.03
2022-11-30T04:53:17.616Z,102387.00
2022-11-30T04:55:45.148Z,102381.75
2022-11-30T04:58:12.624Z,102394.94
2022-11-30T05:00:40.250Z,102395.63
2022-11-30T05:03:08.067Z,102389.50
2022-11-30T05:05:35.737Z,102384.50
2022-11-30T05:08:03.318Z,102384.25
2022-11-30T05:10:33.898Z,102391.97
2022-11-30T05:13:01.725Z,102383.16
2022-11-30T05:15:29.398Z,102390.63
2022-11-30T05:18:01.337Z,102388.16
2022-11-30T05:20:29.541Z,102388.56
2022-11-30T05:22:57.899Z,102386.31
2022-11-30T05:25:25.485Z,102382.00
2022-11-30T05:27:53.096Z,102382.66
2022-11-30T05:30:20.716Z,102385.84
2022-11-30T05:32:48.334Z,102381.31
2022-11-30T05:35:16.006Z,102389.50
2022-11-30T05:37:43.475Z,102389.25
2022-11-30T05:40:11.268Z,102405.34
2022-11-30T05:42:41.314Z,102397.19
2022-11-30T05:45:11.768Z,102396.72
2022-11-30T05:47:39.323Z,102400.34
2022-11-30T05:50:07.542Z,102390.84
2022-11-30T05:52:35.157Z,102411.28
2022-11-30T05:55:02.590Z,102402.19
2022-11-30T05:57:30.763Z,102407.66
2022-11-30T05:59:58.219Z,102407.88
2022-11-30T06:02:28.340Z,102400.41
2022-11-30T06:04:56.239Z,102407.19
2022-11-30T06:07:23.785Z,102415.81
2022-11-30T06:09:51.470Z,102409.44
2022-11-30T06:12:18.941Z,102416.47
2022-11-30T06:14:49.153Z,102421.25
2022-11-30T06:17:17.374Z,102416.22
2022-11-30T06:19:44.879Z,102423.69
2022-11-30T06:22:12.422Z,102409.59
2022-11-30T06:24:39.927Z,102414.88
2022-11-30T06:27:07.364Z,102418.00
2022-11-30T06:29:35.255Z,102426.88
2022-11-30T06:32:02.896Z,102418.47
2022-11-30T06:34:32.391Z,102431.16
2022-11-30T06:36:59.900Z,102424.53
2022-11-30T06:39:57.896Z,102425.06
2022-11-30T06:42:15.001Z,102425.09
2022-11-30T06:44:42.522Z,102429.28
2022-11-30T06:47:10.053Z,102428.72
2022-11-30T06:49:37.745Z,102430.34
2022-11-30T06:52:05.391Z,102431.97
2022-11-30T06:54:32.836Z,102415.56
2022-11-30T06:57:01.407Z,102423.84
2022-11-30T06:59:29.501Z,102421.38
2022-11-30T07:01:57.133Z,102423.91
2022-11-30T07:04:24.712Z,102426.22
2022-11-30T07:06:52.279Z,102421.38
2022-11-30T07:09:19.918Z,102422.09
2022-11-30T07:11:47.391Z,102428.66
2022-11-30T07:14:14.959Z,102422.97
2022-11-30T07:16:42.435Z,102421.16
2022-11-30T07:19:09.957Z,102426.03
2022-11-30T07:21:37.407Z,102433.41
2022-11-30T07:24:23.575Z,102433.84
2022-11-30T07:26:51.163Z,102435.41
2022-11-30T07:29:26.090Z,102427.09
2022-11-30T07:31:54.725Z,102434.94
2022-11-30T07:34:22.928Z,102430.50
2022-11-30T07:36:50.335Z,102421.28
2022-11-30T07:39:17.790Z,102422.50
2022-11-30T07:41:45.263Z,102438.03
2022-11-30T07:44:12.706Z,102427.34
2022-11-30T07:46:40.175Z,102434.59
2022-11-30T07:49:09.669Z,102445.75
2022-11-30T07:51:37.782Z,102441.69
2022-11-30T07:54:05.504Z,102451.28
2022-11-30T07:56:33.220Z,102445.75
2022-11-30T07:59:02.000Z,102443.13
2022-11-30T08:01:32.460Z,102443.69
2022-11-30T08:04:00.478Z,102448.53
2022-11-30T08:06:30.657Z,102451.28
2022-11-30T08:09:01.313Z,102457.38
2022-11-30T08:11:31.193Z,102449.16
2022-11-30T08:13:58.985Z,102454.84
2022-11-30T08:16:28.694Z,102451.66
2022-11-30T08:18:57.049Z,102438.22
2022-11-30T08:21:25.096Z,102445.28
2022-11-30T08:23:56.533Z,102438.50
2022-11-30T08:26:27.695Z,102440.09
2022-11-30T08:28:55.678Z,102437.34
2022-11-30T08:31:31.675Z,102444.22
2022-11-30T08:34:07.603Z,102443.44
2022-11-30T08:36:35.264Z,102437.34
2022-11-30T08:39:05.233Z,102441.88
2022-11-30T08:41:34.950Z,102437.34
2022-11-30T08:44:02.455Z,102441.66
2022-11-30T08:49:22.536Z,102439.16
2022-11-30T08:52:17.022Z,102428.59
2022-11-30T08:54:46.405Z,102426.47
2022-11-30T08:57:19.705Z,102423.56
2022-11-30T08:59:47.829Z,102425.94
2022-11-30T09:02:18.231Z,102427.25
2022-11-30T09:04:49.294Z,102428.25
2022-11-30T09:07:17.883Z,102413.19
2022-11-30T09:09:45.819Z,102418.16
2022-11-30T09:12:15.840Z,102422.31
2022-11-30T09:14:45.193Z,102420.47
2022-11-30T09:17:12.925Z,102415.59
2022-11-30T09:19:40.446Z,102426.09
2022-11-30T09:22:08.009Z,102425.56
2022-11-30T09:24:35.604Z,102430.38
2022-11-30T09:27:03.065Z,102409.25
2022-11-30T09:29:30.606Z,102412.50
2022-11-30T09:31:58.336Z,102411.53
2022-11-30T09:34:26.103Z,102415.09
2022-11-30T09:36:53.618Z,102409.25
2022-11-30T09:39:21.184Z,102402.97
2022-11-30T09:42:07.079Z,102418.22
2022-11-30T09:44:43.577Z,102416.25
2022-11-30T09:47:45.271Z,102411.72
2022-11-30T09:50:20.655Z,102419.59
2022-11-30T09:53:01.409Z,102411.41
2022-11-30T09:55:34.013Z,102411.66
2022-11-30T09:58:05.687Z,102405.09
2022-11-30T10:00:34.984Z,102400.88
2022-11-30T10:03:06.161Z,102405.66
2022-11-30T10:05:51.464Z,102412.63
2022-11-30T10:08:33.573Z,102409.84
2022-11-30T10:11:25.628Z,102408.69
2022-11-30T10:14:00.863Z,102409.59
2022-11-30T10:16:47.205Z,102416.00
2022-11-30T10:19:33.463Z,102407.53
2022-11-30T10:22:13.216Z,102408.22
2022-11-30T10:25:18.241Z,102413.31
2022-11-30T10:28:38.589Z,102409.19
2022-11-30T10:31:01.604Z,102400.97
2022-11-30T10:33:38.785Z,102411.16
2022-11-30T10:36:30.301Z,102408.34
2022-11-30T10:39:02.296Z,102407.16
2022-11-30T10:41:48.520Z,102402.06
2022-11-30T10:44:27.124Z,102398.56
2022-11-30T10:47:15.673Z,102399.78
2022-11-30T10:49:48.830Z,102388.63
2022-11-30T10:52:27.275Z,102401.31
2022-11-30T10:55:02.205Z,102401.72
2022-11-30T10:57:33.249Z,102384.06
2022-11-30T11:00:05.801Z,102397.66
2022-11-30T11:02:50.417Z,102387.41
2022-11-30T11:05:18.217Z,102400.88
2022-11-30T11:08:19.656Z,102395.38
2022-11-30T11:10:52.215Z,102392.94
2022-11-30T11:13:41.477Z,102395.28
2022-11-30T11:16:11.693Z,102391.16
2022-11-30T11:18:57.928Z,102391.78
2022-11-30T11:21:25.482Z,102392.88
2022-11-30T11:23:55.976Z,102383.44
2022-11-30T11:26:28.641Z,102380.84
2022-11-30T11:28:59.680Z,102392.59
2022-11-30T11:31:42.353Z,102381.72
2022-11-30T11:34:31.823Z,102380.81
2022-11-30T11:37:20.384Z,102379.53
2022-11-30T11:40:09.567Z,102380.94
2022-11-30T11:42:45.523Z,102367.84
2022-11-30T11:45:20.158Z,102380.00
2022-11-30T11:48:11.772Z,102380.41
2022-11-30T11:53:46.073Z,102385.75
2022-11-30T11:56:29.407Z,102388.25
2022-11-30T11:59:01.814Z,102385.81
2022-11-30T12:01:50.951Z,102388.28
2022-11-30T12:04:31.958Z,102390.88
2022-11-30T12:07:04.897Z,102392.38
2022-11-30T12:09:39.713Z,102394.28
2022-11-30T12:12:13.310Z,102386.53
2022-11-30T12:14:40.852Z,102391.31
2022-11-30T12:17:35.524Z,102397.63
2022-11-30T12:20:18.378Z,102391.03
2022-11-30T12:22:54.816Z,102404.00
2022-11-30T12:25:50.150Z,102398.16
2022-11-30T12:28:28.114Z,102388.28
2022-11-30T12:31:15.682Z,102398.31
2022-11-30T12:33:57.298Z,102400.69
2022-11-30T12:36:39.646Z,102401.09
2022-11-30T12:39:16.270Z,102395.84
2022-11-30T12:42:03.243Z,102401.00
2022-11-30T12:44:45.527Z,102406.34
2022-11-30T12:47:39.930Z,102403.91
2022-11-30T12:50:40.648Z,102403.25
2022-11-30T12:53:37.700Z,102411.25
2022-11-30T12:56:28.308Z,102412.66
2022-11-30T12:59:28.076Z,102414.34
2022-11-30T13:02:17.316Z,102418.09
2022-11-30T13:04:58.791Z,102410.88
2022-11-30T13:07:34.816Z,102427.22
2022-11-30T13:10:27.858Z,102423.28
2022-11-30T13:13:02.456Z,102418.69
2022-11-30T13:15:34.331Z,102418.94
2022-11-30T13:18:03.501Z,102421.25
2022-11-30T13:20:46.821Z,102419.84
2022-11-30T13:23:21.310Z,102410.09
2022-11-30T13:26:11.743Z,102418.28
2022-11-30T13:28:42.282Z,102418.34
2022-11-30T13:31:21.950Z,102412.19
2022-11-30T13:33:58.375Z,102408.59
2022-11-30T13:36:48.256Z,102416.34
2022-11-30T13:39:16.517Z,102410.94
2022-11-30T13:41:50.708Z,102402.75
2022-11-30T13:44:34.268Z,102409.09
2022-11-30T13:47:04.642Z,102409.75
2022-11-30T13:49:36.877Z,102415.16
2022-11-30T13:52:23.174Z,102406.72
2022-11-30T13:54:57.378Z,102415.16
2022-11-30T13:57:24.871Z,102413.53
2022-11-30T14:00:03.997Z,102405.13
2022-11-30T14:02:32.603Z,102401.50
2022-11-30T14:05:18.330Z,102401.91
2022-11-30T14:08:07.090Z,102402.44
2022-11-30T14:10:38.198Z,102402.22
2022-11-30T14:13:29.684Z,102402.03
2022-11-30T14:16:00.831Z,102400.06
2022-11-30T14:18:39.933Z,102395.25
2022-11-30T14:21:26.584Z,102394.59
2022-11-30T14:23:59.731Z,102403.06
2022-11-30T14:26:44.062Z,102392.91
2022-11-30T14:29:27.670Z,102399.97
2022-11-30T14:32:28.540Z,102396.75
2022-11-30T14:35:05.902Z,102398.63
2022-11-30T14:37:40.919Z,102385.50
2022-11-30T14:40:18.460Z,102397.13
2022-11-30T14:42:51.699Z,102390.06
2022-11-30T14:45:21.794Z,102393.47
2022-11-30T14:47:55.818Z,102406.66
2022-11-30T14:50:26.109Z,102401.47
2022-11-30T14:53:13.360Z,102404.22
2022-11-30T14:55:46.551Z,102405.38
2022-11-30T14:58:45.568Z,102400.38
2022-11-30T15:01:43.125Z,102396.75
2022-11-30T15:04:20.723Z,102398.41
2022-11-30T15:06:53.001Z,102395.00
2022-11-30T15:09:30.935Z,102397.75
2022-11-30T15:12:00.337Z,102409.13
2022-11-30T15:14:31.406Z,102406.81
2022-11-30T15:17:00.460Z,102407.25
2022-11-30T15:19:35.386Z,102411.41
2022-11-30T15:22:03.238Z,102406.41
2022-11-30T15:24:30.781Z,102401.81
2022-11-30T15:27:10.975Z,102406.34
2022-11-30T15:29:57.715Z,102404.53
2022-11-30T15:32:26.273Z,102404.31
2022-11-30T15:35:00.943Z,102404.06
2022-11-30T15:37:33.826Z,102404.06
2022-11-30T15:40:03.457Z,102399.50
2022-11-30T15:42:44.098Z,102401.53
2022-11-30T15:45:30.473Z,102402.44
2022-11-30T15:48:00.315Z,102404.53
2022-11-30T15:50:31.174Z,102403.66
2022-11-30T15:53:01.172Z,102402.78
2022-11-30T15:55:48.720Z,102400.00
2022-11-30T15:58:46.101Z,102398.00
2022-11-30T16:01:20.801Z,102406.41
2022-11-30T16:04:02.368Z,102398.44
2022-11-30T16:06:32.713Z,102409.38
2022-11-30T16:09:19.301Z,102408.44
2022-11-30T16:11:50.379Z,102399.38
2022-11-30T16:14:18.179Z,102412.31
2022-11-30T16:16:46.340Z,102413.00
2022-11-30T16:19:14.031Z,102414.41
2022-11-30T16:21:41.872Z,102403.50
2022-11-30T16:24:16.084Z,102410.75
2022-11-30T16:26:50.910Z,102405.97
2022-11-30T16:29:18.969Z,102403.91
2022-11-30T16:31:46.586Z,102394.59
2022-11-30T16:34:14.293Z,102378.25
2022-11-30T16:36:41.782Z,102392.53
2022-11-30T16:39:12.375Z,102396.81
2022-11-30T16:41:43.395Z,102395.22
2022-11-30T16:44:14.677Z,102388.41
2022-11-30T16:46:42.323Z,102397.47
2022-11-30T16:49:09.964Z,102398.16
2022-11-30T16:51:37.630Z,102399.09
2022-11-30T16:54:05.402Z,102396.59
2022-11-30T16:56:33.406Z,102401.59
2022-11-30T16:59:01.064Z,102395.44
2022-11-30T17:01:35.538Z,102396.13
2022-11-30T17:04:21.514Z,102395.44
2022-11-30T17:06:51.304Z,102404.81
2022-11-30T17:09:21.479Z,102396.66
2022-11-30T17:11:50.922Z,102389.16
2022-11-30T17:14:19.858Z,102395.75
2022-11-30T17:16:47.672Z,102393.91
2022-11-30T17:19:15.348Z,102401.63
2022-11-30T17:21:44.801Z,102393.00
2022-11-30T17:24:13.294Z,102399.31
2022-11-30T17:26:40.893Z,102401.13
2022-11-30T17:29:08.485Z,102402.94
2022-11-30T17:31:36.987Z,102394.56
2022-11-30T17:34:04.478Z,102398.22
2022-11-30T17:36:32.097Z,102396.81
2022-11-30T17:38:59.692Z,102391.81
2022-11-30T17:41:27.173Z,102396.13
2022-11-30T17:43:54.867Z,102403.41
2022-11-30T17:46:22.676Z,102389.81
2022-11-30T17:48:50.573Z,102391.84
2022-11-30T17:51:18.098Z,102392.53
2022-11-30T17:53:48.074Z,102396.41
2022-11-30T17:56:17.508Z,102401.19
2022-11-30T17:58:46.298Z,102396.66
2022-11-30T18:01:30.135Z,102401.66
2022-11-30T18:03:59.116Z,102403.00
2022-11-30T18:06:26.902Z,102403.06
2022-11-30T18:08:54.471Z,102387.59
2022-11-30T18:11:24.012Z,102407.16
2022-11-30T18:13:54.446Z,102409.44
2022-11-30T18:16:27.730Z,102398.97
2022-11-30T18:18:57.480Z,102393.53
2022-11-30T18:21:28.383Z,102407.16
2022-11-30T18:23:57.838Z,102408.28
2022-11-30T18:26:26.833Z,102411.00
2022-11-30T18:28:56.768Z,102400.78
2022-11-30T18:31:24.975Z,102413.53
2022-11-30T18:33:56.606Z,102407.84
2022-11-30T18:36:24.580Z,102408.78
2022-11-30T18:38:52.156Z,102410.81
2022-11-30T18:41:20.120Z,102419.47
2022-11-30T18:43:47.743Z,102420.59
2022-11-30T18:46:15.362Z,102416.94
2022-11-30T18:48:43.110Z,102413.75
2022-11-30T18:51:22.976Z,102420.13
2022-11-30T18:53:57.717Z,102430.56
2022-11-30T18:56:27.103Z,102421.28
2022-11-30T18:59:06.662Z,102425.38
2022-11-30T19:01:35.712Z,102424.22
2022-11-30T19:04:06.003Z,102421.50
2022-11-30T19:06:34.658Z,102413.09
2022-11-30T19:09:05.839Z,102421.50
2022-11-30T19:11:33.884Z,102431.72
2022-11-30T19:14:02.089Z,102423.53
2022-11-30T19:16:31.378Z,102430.13
2022-11-30T19:19:02.164Z,102432.16
2022-11-30T19:21:29.733Z,102431.03
2022-11-30T19:23:57.588Z,102434.91
2022-11-30T19:26:28.006Z,102426.28
2022-11-30T19:28:57.152Z,102432.19
2022-11-30T19:31:25.504Z,102440.13
2022-11-30T19:33:55.850Z,102430.34
2022-11-30T19:36:26.183Z,102430.13
2022-11-30T19:38:54.818Z,102431.25
2022-11-30T19:41:22.607Z,102438.97
2022-11-30T19:44:04.110Z,102448.50
2022-11-30T19:46:34.726Z,102441.69
2022-11-30T19:49:02.566Z,102443.97
2022-11-30T19:51:31.294Z,102443.94
2022-11-30T19:54:01.924Z,102452.59
2022-11-30T19:56:32.346Z,102457.13
2022-11-30T19:59:05.059Z,102458.50
2022-11-30T20:01:34.509Z,102449.63
2022-11-30T20:04:03.230Z,102451.22
2022-11-30T20:06:34.352Z,102457.59
2022-11-30T20:09:03.823Z,102463.50
2022-11-30T20:11:31.702Z,102459.88
2022-11-30T20:14:00.432Z,102465.56
2022-11-30T20:16:28.333Z,102467.16
2022-11-30T20:19:00.897Z,102465.31
2022-11-30T20:21:34.382Z,102470.56
2022-11-30T20:24:06.234Z,102474.19
2022-11-30T20:26:39.869Z,102470.09
2022-11-30T20:29:11.960Z,102471.47
2022-11-30T20:31:39.741Z,102472.16
2022-11-30T20:34:08.285Z,102471.91
2022-11-30T20:36:36.232Z,102466.91
2022-11-30T20:39:04.792Z,102468.72
2022-11-30T20:41:34.051Z,102462.38
2022-11-30T20:44:01.795Z,102467.16
2022-11-30T20:46:32.149Z,102463.50
2022-11-30T20:49:00.752Z,102464.88
2022-11-30T20:51:32.436Z,102470.31
2022-11-30T20:54:02.724Z,102473.03
2022-11-30T20:56:30.353Z,102461.22
2022-11-30T20:59:01.646Z,102472.09
2022-11-30T21:01:29.477Z,102476.44
2022-11-30T21:04:01.011Z,102475.09
2022-11-30T21:06:30.199Z,102461.94
2022-11-30T21:08:58.842Z,102467.59
2022-11-30T21:11:27.803Z,102465.78
2022-11-30T21:13:56.526Z,102463.72
2022-11-30T21:16:28.564Z,102464.88
2022-11-30T21:18:59.090Z,102466.69
2022-11-30T21:21:30.923Z,102465.09
2022-11-30T21:24:00.938Z,102476.69
2022-11-30T21:26:34.001Z,102476.91
2022-11-30T21:29:04.853Z,102474.88
2022-11-30T21:31:32.531Z,102483.97
2022-11-30T21:34:00.477Z,102478.47
2022-11-30T21:36:28.630Z,102474.84
2022-11-30T21:39:06.356Z,102479.41
2022-11-30T21:41:38.800Z,102478.47
2022-11-30T21:44:10.543Z,102478.44
2022-11-30T21:46:38.621Z,102473.91
2022-11-30T21:49:06.959Z,102478.44
2022-11-30T21:51:34.613Z,102479.13
2022-11-30T21:54:07.591Z,102484.09
2022-11-30T21:56:37.174Z,102482.03
2022-11-30T21:59:06.760Z,102491.56
2022-11-30T22:01:39.343Z,102489.75
2022-11-30T22:04:08.591Z,102479.06
2022-11-30T22:06:37.763Z,102486.78
2022-11-30T22:09:16.690Z,102472.94
2022-11-30T22:11:45.425Z,102480.22
2022-11-30T22:14:16.071Z,102482.44
2022-11-30T22:16:44.532Z,102484.03
2022-11-30T22:19:12.051Z,102488.75
2022-11-30T22:21:39.882Z,102489.03
2022-11-30T22:24:11.239Z,102488.78
2022-11-30T22:26:39.873Z,102487.69
2022-11-30T22:29:16.573Z,102487.44
2022-11-30T22:31:46.233Z,102480.19
2022-11-30T22:34:14.241Z,102486.06
2022-11-30T22:36:43.233Z,102484.91
2022-11-30T22:39:19.730Z,102483.06
2022-11-30T22:41:54.668Z,102483.72
2022-11-30T22:44:24.310Z,102468.72
2022-11-30T22:46:51.974Z,102474.84
2022-11-30T22:49:21.544Z,102472.13
2022-11-30T22:51:50.643Z,102482.78
2022-11-30T22:54:18.948Z,102486.19
2022-11-30T22:56:46.897Z,102485.72
2022-11-30T22:59:15.357Z,102491.38
2022-11-30T23:01:45.721Z,102490.03
2022-11-30T23:04:16.216Z,102488.44
2022-11-30T23:06:44.723Z,102487.50
2022-11-30T23:09:15.276Z,102495.25
2022-11-30T23:11:43.395Z,102498.16
2022-11-30T23:14:12.268Z,102499.06
2022-11-30T23:16:40.444Z,102494.97
2022-11-30T23:19:10.607Z,102496.34
2022-11-30T23:21:41.993Z,102484.09
2022-11-30T23:24:14.266Z,102489.81
2022-11-30T23:26:43.098Z,102477.78
2022-11-30T23:29:13.773Z,102487.31
2022-11-30T23:31:43.153Z,102490.44
2022-11-30T23:34:16.716Z,102492.06
2022-11-30T23:36:44.218Z,102477.78
2022-11-30T23:39:14.781Z,102477.34
2022-11-30T23:41:42.944Z,102482.34
2022-11-30T23:44:11.489Z,102480.53
2022-11-30T23:46:39.239Z,102482.81
2022-11-30T23:49:07.142Z,102482.34
2022-11-30T23:51:34.673Z,102486.84
2022-11-30T23:54:02.145Z,102472.34
2022-11-30T23:56:29.658Z,102483.47
2022-11-30T23:58:57.096Z,102478.28
